Arlington, Vermont
Current Conditions -  °F | °C
As of 12:54 PM on Monday 26 Jan 2015 (Local Time) from KDDH Reporting Station
Scattered Clouds Scattered Clouds  
Wind Chill: 22°   Ceiling: Unl
Heat Index: 22°   Visibility: 10mi
Dew Point:   Wind: 0mph
Humidity: 38%   Direction: NA
Pressure: 29.97"   Gusts: NA
Location:  43.07°N, 73.15°W
Report Text: KDDH 261754Z AUTO 00000KT 10SM SCT046 M06/M18 A2997 RMK AO2 SLP165 T10561178 11056 21139 58023
Loading
Personal Weather Stations






























Interactive Weather Map New forecast layout! Learn more

10-Day Weather Forecast

Advertisements
Track Severe Weather on mobile